Fairfield, Tennessee
Current Conditions -  °F | °C
As of 12:53 PM on Friday 21 Nov 2014 (Local Time) from KCSV Reporting Station
Clear Clear  
Wind Chill: 50°   Ceiling: Unl
Heat Index: 50°   Visibility: 10mi
Dew Point: 14°   Wind: 3mph
Humidity: 24%   Direction: 60°ENE
Pressure: 30.38"   Gusts: NA
Location:  35.8867°N, 85.0211°W
Report Text: KCSV 211853Z AUTO 06003KT 10SM CLR 10/M10 A3038 RMK AO2 SLP292 T01001100
Loading
Personal Weather Stations






























Interactive Weather Map New forecast layout! Learn more

10-Day Weather Forecast

Advertisements
Track Severe Weather on mobile